sensor_id;sensor_type;location;lat;lon;timestamp;P1;durP1;ratioP1;P2;durP2;ratioP2
24613;SDS011;12760;46.296;25.290;2023-03-02T00:04:42;1.73;;;1.73;;
24613;SDS011;12760;46.296;25.290;2023-03-02T00:07:18;1.60;;;1.60;;
24613;SDS011;12760;46.296;25.290;2023-03-02T00:09:50;2.13;;;2.13;;
24613;SDS011;12760;46.296;25.290;2023-03-02T00:12:16;2.10;;;2.00;;
24613;SDS011;12760;46.296;25.290;2023-03-02T00:14:42;1.50;;;1.50;;
24613;SDS011;12760;46.296;25.290;2023-03-02T00:17:08;1.90;;;1.90;;
24613;SDS011;12760;46.296;25.290;2023-03-02T00:19:34;1.67;;;1.67;;
24613;SDS011;12760;46.296;25.290;2023-03-02T00:22:00;1.80;;;1.80;;
24613;SDS011;12760;46.296;25.290;2023-03-02T00:24:26;1.80;;;1.80;;
24613;SDS011;12760;46.296;25.290;2023-03-02T00:26:52;3.37;;;3.17;;
24613;SDS011;12760;46.296;25.290;2023-03-02T00:29:18;1.60;;;1.60;;
24613;SDS011;12760;46.296;25.290;2023-03-02T00:31:43;2.00;;;1.90;;
24613;SDS011;12760;46.296;25.290;2023-03-02T00:34:09;1.70;;;1.70;;
24613;SDS011;12760;46.296;25.290;2023-03-02T00:36:35;3.20;;;3.07;;
24613;SDS011;12760;46.296;25.290;2023-03-02T00:39:01;2.33;;;2.27;;
24613;SDS011;12760;46.296;25.290;2023-03-02T00:41:28;1.73;;;1.73;;
24613;SDS011;12760;46.296;25.290;2023-03-02T00:43:54;2.13;;;2.07;;
24613;SDS011;12760;46.296;25.290;2023-03-02T00:46:20;7.53;;;2.73;;
24613;SDS011;12760;46.296;25.290;2023-03-02T00:48:48;2.40;;;2.30;;
24613;SDS011;12760;46.296;25.290;2023-03-02T00:51:14;1.90;;;1.90;;
24613;SDS011;12760;46.296;25.290;2023-03-02T00:53:40;2.07;;;2.07;;
24613;SDS011;12760;46.296;25.290;2023-03-02T00:56:06;2.03;;;2.03;;
24613;SDS011;12760;46.296;25.290;2023-03-02T00:58:33;2.40;;;2.30;;
24613;SDS011;12760;46.296;25.290;2023-03-02T01:01:03;1.77;;;1.77;;
24613;SDS011;12760;46.296;25.290;2023-03-02T01:03:33;1.40;;;1.40;;
24613;SDS011;12760;46.296;25.290;2023-03-02T01:06:00;2.70;;;1.93;;
24613;SDS011;12760;46.296;25.290;2023-03-02T01:08:25;3.73;;;3.50;;
24613;SDS011;12760;46.296;25.290;2023-03-02T01:10:51;1.70;;;1.70;;
24613;SDS011;12760;46.296;25.290;2023-03-02T01:13:17;3.33;;;3.10;;
24613;SDS011;12760;46.296;25.290;2023-03-02T01:15:43;2.50;;;2.40;;
24613;SDS011;12760;46.296;25.290;2023-03-02T01:18:09;1.80;;;1.80;;
24613;SDS011;12760;46.296;25.290;2023-03-02T01:20:36;1.27;;;1.27;;
24613;SDS011;12760;46.296;25.290;2023-03-02T01:23:02;1.63;;;1.63;;
24613;SDS011;12760;46.296;25.290;2023-03-02T01:25:27;1.77;;;1.77;;
24613;SDS011;12760;46.296;25.290;2023-03-02T01:27:53;5.07;;;4.77;;
24613;SDS011;12760;46.296;25.290;2023-03-02T01:30:19;1.77;;;1.77;;
24613;SDS011;12760;46.296;25.290;2023-03-02T01:32:45;1.87;;;1.87;;
24613;SDS011;12760;46.296;25.290;2023-03-02T01:35:11;2.00;;;2.00;;
24613;SDS011;12760;46.296;25.290;2023-03-02T01:37:37;2.57;;;2.47;;
24613;SDS011;12760;46.296;25.290;2023-03-02T01:40:02;1.47;;;1.43;;
24613;SDS011;12760;46.296;25.290;2023-03-02T01:42:38;1.77;;;1.77;;
24613;SDS011;12760;46.296;25.290;2023-03-02T01:48:13;2.53;;;2.43;;
24613;SDS011;12760;46.296;25.290;2023-03-02T01:50:42;2.13;;;2.13;;
24613;SDS011;12760;46.296;25.290;2023-03-02T01:53:09;1.63;;;1.63;;
24613;SDS011;12760;46.296;25.290;2023-03-02T01:55:35;1.63;;;1.63;;
24613;SDS011;12760;46.296;25.290;2023-03-02T01:58:02;2.23;;;2.23;;
24613;SDS011;12760;46.296;25.290;2023-03-02T02:00:31;1.33;;;1.33;;
24613;SDS011;12760;46.296;25.290;2023-03-02T02:03:02;1.87;;;1.83;;
24613;SDS011;12760;46.296;25.290;2023-03-02T02:05:41;1.60;;;1.60;;
24613;SDS011;12760;46.296;25.290;2023-03-02T02:08:10;1.57;;;1.57;;
24613;SDS011;12760;46.296;25.290;2023-03-02T02:10:36;1.53;;;1.53;;
24613;SDS011;12760;46.296;25.290;2023-03-02T02:13:03;1.90;;;1.90;;
24613;SDS011;12760;46.296;25.290;2023-03-02T02:15:29;1.30;;;1.30;;
24613;SDS011;12760;46.296;25.290;2023-03-02T02:17:55;2.00;;;2.00;;
24613;SDS011;12760;46.296;25.290;2023-03-02T02:20:29;3.57;;;3.37;;
24613;SDS011;12760;46.296;25.290;2023-03-02T02:26:12;1.67;;;1.67;;
24613;SDS011;12760;46.296;25.290;2023-03-02T02:31:39;2.00;;;2.00;;
24613;SDS011;12760;46.296;25.290;2023-03-02T02:36:44;2.20;;;2.20;;
24613;SDS011;12760;46.296;25.290;2023-03-02T02:39:16;2.47;;;2.40;;
24613;SDS011;12760;46.296;25.290;2023-03-02T02:41:46;2.20;;;2.10;;
24613;SDS011;12760;46.296;25.290;2023-03-02T02:44:15;2.03;;;2.03;;
24613;SDS011;12760;46.296;25.290;2023-03-02T02:46:42;2.43;;;2.33;;
24613;SDS011;12760;46.296;25.290;2023-03-02T02:51:53;2.13;;;2.13;;
24613;SDS011;12760;46.296;25.290;2023-03-02T02:54:18;2.63;;;2.57;;
24613;SDS011;12760;46.296;25.290;2023-03-02T02:56:45;1.27;;;1.27;;
24613;SDS011;12760;46.296;25.290;2023-03-02T02:59:15;3.43;;;3.23;;
24613;SDS011;12760;46.296;25.290;2023-03-02T03:01:45;2.40;;;2.30;;
24613;SDS011;12760;46.296;25.290;2023-03-02T03:04:13;3.10;;;3.00;;
24613;SDS011;12760;46.296;25.290;2023-03-02T03:07:12;4.80;;;4.50;;
24613;SDS011;12760;46.296;25.290;2023-03-02T03:09:37;3.13;;;2.73;;
24613;SDS011;12760;46.296;25.290;2023-03-02T03:12:06;2.17;;;2.17;;
24613;SDS011;12760;46.296;25.290;2023-03-02T03:14:40;2.30;;;2.20;;
24613;SDS011;12760;46.296;25.290;2023-03-02T03:17:06;2.53;;;2.43;;
24613;SDS011;12760;46.296;25.290;2023-03-02T03:19:36;1.93;;;1.87;;
24613;SDS011;12760;46.296;25.290;2023-03-02T03:22:07;3.80;;;3.60;;
24613;SDS011;12760;46.296;25.290;2023-03-02T03:24:36;2.80;;;2.70;;
24613;SDS011;12760;46.296;25.290;2023-03-02T03:27:02;2.33;;;2.23;;
24613;SDS011;12760;46.296;25.290;2023-03-02T03:29:29;1.80;;;1.80;;
24613;SDS011;12760;46.296;25.290;2023-03-02T03:31:57;3.30;;;3.20;;
24613;SDS011;12760;46.296;25.290;2023-03-02T03:34:24;2.47;;;2.37;;
24613;SDS011;12760;46.296;25.290;2023-03-02T03:36:50;3.10;;;3.00;;
24613;SDS011;12760;46.296;25.290;2023-03-02T03:39:17;1.50;;;1.50;;
24613;SDS011;12760;46.296;25.290;2023-03-02T03:41:43;2.03;;;2.03;;
24613;SDS011;12760;46.296;25.290;2023-03-02T03:44:09;2.70;;;2.60;;
24613;SDS011;12760;46.296;25.290;2023-03-02T03:46:35;1.73;;;1.73;;
24613;SDS011;12760;46.296;25.290;2023-03-02T03:49:01;2.63;;;2.53;;
24613;SDS011;12760;46.296;25.290;2023-03-02T03:51:27;3.53;;;3.43;;
24613;SDS011;12760;46.296;25.290;2023-03-02T03:53:59;1.90;;;1.90;;
24613;SDS011;12760;46.296;25.290;2023-03-02T03:56:28;2.23;;;2.23;;
24613;SDS011;12760;46.296;25.290;2023-03-02T03:58:55;4.27;;;4.07;;
24613;SDS011;12760;46.296;25.290;2023-03-02T04:04:04;4.07;;;3.53;;
24613;SDS011;12760;46.296;25.290;2023-03-02T04:06:31;3.07;;;2.97;;
24613;SDS011;12760;46.296;25.290;2023-03-02T04:08:57;1.80;;;1.80;;
24613;SDS011;12760;46.296;25.290;2023-03-02T04:11:28;2.53;;;2.47;;
24613;SDS011;12760;46.296;25.290;2023-03-02T04:13:55;3.33;;;3.10;;
24613;SDS011;12760;46.296;25.290;2023-03-02T04:16:21;23.63;;;3.97;;
24613;SDS011;12760;46.296;25.290;2023-03-02T04:18:47;1.60;;;1.60;;
24613;SDS011;12760;46.296;25.290;2023-03-02T04:21:13;2.90;;;2.70;;
24613;SDS011;12760;46.296;25.290;2023-03-02T04:23:38;2.20;;;2.20;;
24613;SDS011;12760;46.296;25.290;2023-03-02T04:26:04;1.97;;;1.90;;
24613;SDS011;12760;46.296;25.290;2023-03-02T04:28:30;4.67;;;4.37;;
24613;SDS011;12760;46.296;25.290;2023-03-02T04:30:56;4.50;;;4.20;;
24613;SDS011;12760;46.296;25.290;2023-03-02T04:33:22;26.67;;;5.80;;
24613;SDS011;12760;46.296;25.290;2023-03-02T04:35:47;5.77;;;5.37;;
24613;SDS011;12760;46.296;25.290;2023-03-02T04:38:14;4.13;;;3.93;;
24613;SDS011;12760;46.296;25.290;2023-03-02T04:40:39;5.97;;;5.67;;
24613;SDS011;12760;46.296;25.290;2023-03-02T04:43:05;5.93;;;5.40;;
24613;SDS011;12760;46.296;25.290;2023-03-02T04:45:31;6.33;;;6.03;;
24613;SDS011;12760;46.296;25.290;2023-03-02T04:47:57;4.73;;;4.47;;
24613;SDS011;12760;46.296;25.290;2023-03-02T04:50:22;5.50;;;5.17;;
24613;SDS011;12760;46.296;25.290;2023-03-02T04:52:48;7.47;;;5.73;;
24613;SDS011;12760;46.296;25.290;2023-03-02T04:55:16;14.27;;;10.20;;
24613;SDS011;12760;46.296;25.290;2023-03-02T04:57:45;4.80;;;4.33;;
24613;SDS011;12760;46.296;25.290;2023-03-02T05:00:11;6.83;;;4.90;;
24613;SDS011;12760;46.296;25.290;2023-03-02T05:02:37;12.70;;;9.67;;
24613;SDS011;12760;46.296;25.290;2023-03-02T05:05:04;13.93;;;11.93;;
24613;SDS011;12760;46.296;25.290;2023-03-02T05:07:29;5.17;;;4.80;;
24613;SDS011;12760;46.296;25.290;2023-03-02T05:09:55;7.80;;;7.30;;
24613;SDS011;12760;46.296;25.290;2023-03-02T05:12:21;5.93;;;5.57;;
24613;SDS011;12760;46.296;25.290;2023-03-02T05:14:46;2.97;;;2.87;;
24613;SDS011;12760;46.296;25.290;2023-03-02T05:17:12;7.10;;;6.03;;
24613;SDS011;12760;46.296;25.290;2023-03-02T05:19:39;5.23;;;5.03;;
24613;SDS011;12760;46.296;25.290;2023-03-02T05:22:05;11.20;;;7.73;;
24613;SDS011;12760;46.296;25.290;2023-03-02T05:24:31;4.97;;;4.80;;
24613;SDS011;12760;46.296;25.290;2023-03-02T05:26:56;3.73;;;3.53;;
24613;SDS011;12760;46.296;25.290;2023-03-02T05:29:22;4.80;;;4.50;;
24613;SDS011;12760;46.296;25.290;2023-03-02T05:31:48;2.57;;;2.50;;
24613;SDS011;12760;46.296;25.290;2023-03-02T05:34:15;2.83;;;2.73;;
24613;SDS011;12760;46.296;25.290;2023-03-02T05:36:41;5.07;;;4.87;;
24613;SDS011;12760;46.296;25.290;2023-03-02T05:39:09;4.60;;;4.20;;
24613;SDS011;12760;46.296;25.290;2023-03-02T05:41:35;3.53;;;3.43;;
24613;SDS011;12760;46.296;25.290;2023-03-02T05:44:01;4.03;;;3.93;;
24613;SDS011;12760;46.296;25.290;2023-03-02T05:46:27;3.93;;;3.73;;
24613;SDS011;12760;46.296;25.290;2023-03-02T05:48:53;4.40;;;4.10;;
24613;SDS011;12760;46.296;25.290;2023-03-02T05:51:19;5.70;;;5.50;;
24613;SDS011;12760;46.296;25.290;2023-03-02T05:53:44;8.07;;;7.40;;
24613;SDS011;12760;46.296;25.290;2023-03-02T05:56:10;3.97;;;3.87;;
24613;SDS011;12760;46.296;25.290;2023-03-02T05:58:36;7.40;;;7.00;;
24613;SDS011;12760;46.296;25.290;2023-03-02T06:01:06;15.03;;;13.63;;
24613;SDS011;12760;46.296;25.290;2023-03-02T06:03:33;15.37;;;14.20;;
24613;SDS011;12760;46.296;25.290;2023-03-02T06:05:58;9.77;;;8.57;;
24613;SDS011;12760;46.296;25.290;2023-03-02T06:08:24;7.43;;;7.03;;
24613;SDS011;12760;46.296;25.290;2023-03-02T06:10:53;9.67;;;8.97;;
24613;SDS011;12760;46.296;25.290;2023-03-02T06:13:20;5.20;;;5.00;;
24613;SDS011;12760;46.296;25.290;2023-03-02T06:15:45;13.67;;;12.57;;
24613;SDS011;12760;46.296;25.290;2023-03-02T06:18:11;7.83;;;7.10;;
24613;SDS011;12760;46.296;25.290;2023-03-02T06:20:37;7.07;;;6.37;;
24613;SDS011;12760;46.296;25.290;2023-03-02T06:23:04;6.67;;;6.10;;
24613;SDS011;12760;46.296;25.290;2023-03-02T06:25:30;6.10;;;5.67;;
24613;SDS011;12760;46.296;25.290;2023-03-02T06:27:56;8.37;;;7.87;;
24613;SDS011;12760;46.296;25.290;2023-03-02T06:30:23;5.23;;;5.03;;
24613;SDS011;12760;46.296;25.290;2023-03-02T06:32:49;9.33;;;8.47;;
24613;SDS011;12760;46.296;25.290;2023-03-02T06:35:15;9.80;;;8.27;;
24613;SDS011;12760;46.296;25.290;2023-03-02T06:37:41;9.30;;;6.10;;
24613;SDS011;12760;46.296;25.290;2023-03-02T06:40:07;5.00;;;4.80;;
24613;SDS011;12760;46.296;25.290;2023-03-02T06:42:37;17.73;;;8.43;;
24613;SDS011;12760;46.296;25.290;2023-03-02T06:45:04;11.10;;;7.57;;
24613;SDS011;12760;46.296;25.290;2023-03-02T06:47:31;3.30;;;3.20;;
24613;SDS011;12760;46.296;25.290;2023-03-02T06:49:57;5.57;;;5.17;;
24613;SDS011;12760;46.296;25.290;2023-03-02T06:52:23;4.97;;;4.73;;
24613;SDS011;12760;46.296;25.290;2023-03-02T06:54:51;3.83;;;3.73;;
24613;SDS011;12760;46.296;25.290;2023-03-02T06:57:16;4.50;;;4.20;;
24613;SDS011;12760;46.296;25.290;2023-03-02T06:59:42;2.40;;;2.40;;
24613;SDS011;12760;46.296;25.290;2023-03-02T07:02:08;2.43;;;2.33;;
24613;SDS011;12760;46.296;25.290;2023-03-02T07:04:35;3.03;;;2.93;;
24613;SDS011;12760;46.296;25.290;2023-03-02T07:07:00;4.53;;;4.23;;
24613;SDS011;12760;46.296;25.290;2023-03-02T07:09:26;2.50;;;2.47;;
24613;SDS011;12760;46.296;25.290;2023-03-02T07:11:54;3.10;;;3.00;;
24613;SDS011;12760;46.296;25.290;2023-03-02T07:14:20;3.53;;;3.33;;
24613;SDS011;12760;46.296;25.290;2023-03-02T07:16:46;3.43;;;3.33;;
24613;SDS011;12760;46.296;25.290;2023-03-02T07:19:12;2.10;;;2.10;;
24613;SDS011;12760;46.296;25.290;2023-03-02T07:21:38;2.33;;;2.33;;
24613;SDS011;12760;46.296;25.290;2023-03-02T07:24:04;3.10;;;2.97;;
24613;SDS011;12760;46.296;25.290;2023-03-02T07:26:30;2.67;;;2.57;;
24613;SDS011;12760;46.296;25.290;2023-03-02T07:28:55;2.30;;;2.23;;
24613;SDS011;12760;46.296;25.290;2023-03-02T07:31:23;1.87;;;1.77;;
24613;SDS011;12760;46.296;25.290;2023-03-02T07:33:50;3.77;;;3.57;;
24613;SDS011;12760;46.296;25.290;2023-03-02T07:36:15;1.53;;;1.53;;
24613;SDS011;12760;46.296;25.290;2023-03-02T07:38:41;2.23;;;2.13;;
24613;SDS011;12760;46.296;25.290;2023-03-02T07:41:08;2.03;;;2.03;;
24613;SDS011;12760;46.296;25.290;2023-03-02T07:43:34;1.70;;;1.70;;
24613;SDS011;12760;46.296;25.290;2023-03-02T07:46:01;3.10;;;3.00;;
24613;SDS011;12760;46.296;25.290;2023-03-02T07:48:28;3.13;;;2.93;;
24613;SDS011;12760;46.296;25.290;2023-03-02T07:50:58;2.40;;;2.30;;
24613;SDS011;12760;46.296;25.290;2023-03-02T07:53:25;2.93;;;2.83;;
24613;SDS011;12760;46.296;25.290;2023-03-02T07:55:51;2.73;;;2.63;;
24613;SDS011;12760;46.296;25.290;2023-03-02T07:58:17;3.07;;;2.87;;
24613;SDS011;12760;46.296;25.290;2023-03-02T08:00:43;2.17;;;2.07;;
24613;SDS011;12760;46.296;25.290;2023-03-02T08:03:08;1.60;;;1.60;;
24613;SDS011;12760;46.296;25.290;2023-03-02T08:05:34;4.57;;;4.37;;
24613;SDS011;12760;46.296;25.290;2023-03-02T08:08:00;1.57;;;1.57;;
24613;SDS011;12760;46.296;25.290;2023-03-02T08:10:25;1.73;;;1.73;;
24613;SDS011;12760;46.296;25.290;2023-03-02T08:12:51;2.00;;;1.90;;
24613;SDS011;12760;46.296;25.290;2023-03-02T08:15:17;1.58;;;1.58;;
24613;SDS011;12760;46.296;25.290;2023-03-02T08:17:43;4.32;;;2.45;;
24613;SDS011;12760;46.296;25.290;2023-03-02T08:20:09;2.80;;;1.90;;
24613;SDS011;12760;46.296;25.290;2023-03-02T08:22:35;2.80;;;2.70;;
24613;SDS011;12760;46.296;25.290;2023-03-02T08:25:01;2.85;;;2.70;;
24613;SDS011;12760;46.296;25.290;2023-03-02T08:27:27;1.85;;;1.85;;
24613;SDS011;12760;46.296;25.290;2023-03-02T08:29:53;1.60;;;1.60;;
24613;SDS011;12760;46.296;25.290;2023-03-02T08:32:19;1.25;;;1.25;;
24613;SDS011;12760;46.296;25.290;2023-03-02T08:34:44;3.45;;;2.13;;
24613;SDS011;12760;46.296;25.290;2023-03-02T08:37:15;2.55;;;2.45;;
24613;SDS011;12760;46.296;25.290;2023-03-02T08:39:41;2.92;;;2.83;;
24613;SDS011;12760;46.296;25.290;2023-03-02T08:42:06;2.72;;;2.53;;
24613;SDS011;12760;46.296;25.290;2023-03-02T08:44:32;1.80;;;1.70;;
24613;SDS011;12760;46.296;25.290;2023-03-02T08:46:58;2.40;;;2.30;;
24613;SDS011;12760;46.296;25.290;2023-03-02T08:49:23;1.90;;;1.90;;
24613;SDS011;12760;46.296;25.290;2023-03-02T08:51:49;2.13;;;2.13;;
24613;SDS011;12760;46.296;25.290;2023-03-02T08:54:20;1.52;;;1.48;;
24613;SDS011;12760;46.296;25.290;2023-03-02T08:56:46;2.33;;;2.25;;
24613;SDS011;12760;46.296;25.290;2023-03-02T08:59:13;1.70;;;1.70;;
24613;SDS011;12760;46.296;25.290;2023-03-02T09:01:39;2.38;;;2.28;;
24613;SDS011;12760;46.296;25.290;2023-03-02T09:04:06;3.00;;;2.80;;
24613;SDS011;12760;46.296;25.290;2023-03-02T09:06:33;2.55;;;2.45;;
24613;SDS011;12760;46.296;25.290;2023-03-02T09:09:01;1.23;;;1.23;;
24613;SDS011;12760;46.296;25.290;2023-03-02T09:11:27;2.03;;;1.92;;
24613;SDS011;12760;46.296;25.290;2023-03-02T09:13:53;1.75;;;1.65;;
24613;SDS011;12760;46.296;25.290;2023-03-02T09:16:20;1.85;;;1.77;;
24613;SDS011;12760;46.296;25.290;2023-03-02T09:18:48;1.25;;;1.25;;
24613;SDS011;12760;46.296;25.290;2023-03-02T09:21:14;1.30;;;1.30;;
24613;SDS011;12760;46.296;25.290;2023-03-02T09:23:39;2.30;;;1.90;;
24613;SDS011;12760;46.296;25.290;2023-03-02T09:26:05;2.08;;;1.98;;
24613;SDS011;12760;46.296;25.290;2023-03-02T09:28:31;7.40;;;2.58;;
24613;SDS011;12760;46.296;25.290;2023-03-02T09:30:58;2.17;;;1.95;;
24613;SDS011;12760;46.296;25.290;2023-03-02T09:33:25;1.55;;;1.55;;
24613;SDS011;12760;46.296;25.290;2023-03-02T09:35:51;3.83;;;3.53;;
24613;SDS011;12760;46.296;25.290;2023-03-02T09:38:17;3.10;;;1.98;;
24613;SDS011;12760;46.296;25.290;2023-03-02T09:40:55;1.73;;;1.73;;
24613;SDS011;12760;46.296;25.290;2023-03-02T09:47:04;1.90;;;1.90;;
24613;SDS011;12760;46.296;25.290;2023-03-02T09:54:59;2.13;;;2.03;;
24613;SDS011;12760;46.296;25.290;2023-03-02T09:57:37;2.00;;;1.90;;
24613;SDS011;12760;46.296;25.290;2023-03-02T10:00:10;1.30;;;1.30;;
24613;SDS011;12760;46.296;25.290;2023-03-02T10:02:54;2.13;;;2.03;;
24613;SDS011;12760;46.296;25.290;2023-03-02T10:05:25;4.68;;;3.47;;
24613;SDS011;12760;46.296;25.290;2023-03-02T10:07:53;1.00;;;1.00;;
24613;SDS011;12760;46.296;25.290;2023-03-02T10:10:24;1.40;;;1.40;;
24613;SDS011;12760;46.296;25.290;2023-03-02T10:18:47;3.10;;;2.92;;
24613;SDS011;12760;46.296;25.290;2023-03-02T10:26:53;5.35;;;4.97;;
24613;SDS011;12760;46.296;25.290;2023-03-02T10:29:25;7.65;;;4.50;;
24613;SDS011;12760;46.296;25.290;2023-03-02T10:32:19;2.47;;;2.38;;
24613;SDS011;12760;46.296;25.290;2023-03-02T10:34:45;1.23;;;1.23;;
24613;SDS011;12760;46.296;25.290;2023-03-02T10:37:19;1.50;;;1.50;;
24613;SDS011;12760;46.296;25.290;2023-03-02T10:39:49;1.33;;;1.33;;
24613;SDS011;12760;46.296;25.290;2023-03-02T10:42:25;1.70;;;1.70;;
24613;SDS011;12760;46.296;25.290;2023-03-02T10:44:55;1.05;;;1.05;;
24613;SDS011;12760;46.296;25.290;2023-03-02T10:47:27;1.80;;;1.73;;
24613;SDS011;12760;46.296;25.290;2023-03-02T10:49:54;1.20;;;1.20;;
24613;SDS011;12760;46.296;25.290;2023-03-02T10:52:24;1.08;;;1.08;;
24613;SDS011;12760;46.296;25.290;2023-03-02T10:55:03;1.40;;;1.40;;
24613;SDS011;12760;46.296;25.290;2023-03-02T10:57:35;0.82;;;0.82;;
24613;SDS011;12760;46.296;25.290;2023-03-02T11:00:04;1.48;;;1.48;;
24613;SDS011;12760;46.296;25.290;2023-03-02T11:10:27;1.40;;;1.33;;
24613;SDS011;12760;46.296;25.290;2023-03-02T11:12:56;1.20;;;1.20;;
24613;SDS011;12760;46.296;25.290;2023-03-02T11:20:34;1.17;;;1.17;;
24613;SDS011;12760;46.296;25.290;2023-03-02T11:25:47;4.43;;;1.63;;
24613;SDS011;12760;46.296;25.290;2023-03-02T11:30:52;2.78;;;1.70;;
24613;SDS011;12760;46.296;25.290;2023-03-02T11:33:23;0.80;;;0.80;;
24613;SDS011;12760;46.296;25.290;2023-03-02T11:35:55;1.40;;;1.30;;
24613;SDS011;12760;46.296;25.290;2023-03-02T11:38:28;1.80;;;1.00;;
24613;SDS011;12760;46.296;25.290;2023-03-02T11:41:02;0.93;;;0.93;;
24613;SDS011;12760;46.296;25.290;2023-03-02T11:43:35;1.40;;;1.40;;
24613;SDS011;12760;46.296;25.290;2023-03-02T11:46:02;2.30;;;2.13;;
24613;SDS011;12760;46.296;25.290;2023-03-02T11:48:36;1.30;;;1.30;;
24613;SDS011;12760;46.296;25.290;2023-03-02T11:51:12;7.00;;;1.83;;
24613;SDS011;12760;46.296;25.290;2023-03-02T11:56:30;2.10;;;1.75;;
24613;SDS011;12760;46.296;25.290;2023-03-02T11:59:01;1.27;;;1.27;;
24613;SDS011;12760;46.296;25.290;2023-03-02T12:01:31;1.65;;;1.65;;
24613;SDS011;12760;46.296;25.290;2023-03-02T12:04:06;1.60;;;1.50;;
24613;SDS011;12760;46.296;25.290;2023-03-02T12:06:35;1.08;;;1.08;;
24613;SDS011;12760;46.296;25.290;2023-03-02T12:09:07;1.13;;;1.13;;
24613;SDS011;12760;46.296;25.290;2023-03-02T12:11:59;2.13;;;2.03;;
24613;SDS011;12760;46.296;25.290;2023-03-02T12:14:44;2.08;;;1.70;;
24613;SDS011;12760;46.296;25.290;2023-03-02T12:19:51;0.77;;;0.77;;
24613;SDS011;12760;46.296;25.290;2023-03-02T12:22:28;6.70;;;2.58;;
24613;SDS011;12760;46.296;25.290;2023-03-02T12:27:42;1.63;;;1.63;;
24613;SDS011;12760;46.296;25.290;2023-03-02T12:32:41;1.15;;;1.15;;
24613;SDS011;12760;46.296;25.290;2023-03-02T12:35:13;9.20;;;3.25;;
24613;SDS011;12760;46.296;25.290;2023-03-02T12:37:49;0.98;;;0.98;;
24613;SDS011;12760;46.296;25.290;2023-03-02T12:40:27;7.95;;;3.47;;
24613;SDS011;12760;46.296;25.290;2023-03-02T12:48:30;0.80;;;0.80;;
24613;SDS011;12760;46.296;25.290;2023-03-02T12:51:20;1.60;;;1.60;;
24613;SDS011;12760;46.296;25.290;2023-03-02T12:53:48;4.15;;;3.28;;
24613;SDS011;12760;46.296;25.290;2023-03-02T12:56:24;1.30;;;1.23;;
24613;SDS011;12760;46.296;25.290;2023-03-02T12:58:51;3.42;;;3.15;;
24613;SDS011;12760;46.296;25.290;2023-03-02T13:01:20;2.20;;;2.10;;
24613;SDS011;12760;46.296;25.290;2023-03-02T13:03:47;1.05;;;1.05;;
24613;SDS011;12760;46.296;25.290;2023-03-02T13:06:14;1.48;;;1.48;;
24613;SDS011;12760;46.296;25.290;2023-03-02T13:08:42;1.67;;;1.67;;
24613;SDS011;12760;46.296;25.290;2023-03-02T13:11:10;1.25;;;1.25;;
24613;SDS011;12760;46.296;25.290;2023-03-02T13:13:43;1.13;;;1.13;;
24613;SDS011;12760;46.296;25.290;2023-03-02T13:16:28;1.02;;;1.02;;
24613;SDS011;12760;46.296;25.290;2023-03-02T13:19:00;3.67;;;2.72;;
24613;SDS011;12760;46.296;25.290;2023-03-02T13:21:31;1.08;;;1.08;;
24613;SDS011;12760;46.296;25.290;2023-03-02T13:23:59;2.25;;;2.10;;
24613;SDS011;12760;46.296;25.290;2023-03-02T13:26:35;2.08;;;1.90;;
24613;SDS011;12760;46.296;25.290;2023-03-02T13:29:04;1.08;;;1.08;;
24613;SDS011;12760;46.296;25.290;2023-03-02T13:31:32;1.17;;;1.17;;
24613;SDS011;12760;46.296;25.290;2023-03-02T13:33:59;1.48;;;1.48;;
24613;SDS011;12760;46.296;25.290;2023-03-02T13:36:26;3.28;;;3.00;;
24613;SDS011;12760;46.296;25.290;2023-03-02T13:38:55;1.75;;;1.65;;
24613;SDS011;12760;46.296;25.290;2023-03-02T13:41:27;1.13;;;1.13;;
24613;SDS011;12760;46.296;25.290;2023-03-02T13:43:55;2.35;;;1.75;;
24613;SDS011;12760;46.296;25.290;2023-03-02T13:46:26;1.13;;;1.13;;
24613;SDS011;12760;46.296;25.290;2023-03-02T13:48:54;1.00;;;1.00;;
24613;SDS011;12760;46.296;25.290;2023-03-02T13:51:21;1.13;;;1.13;;
24613;SDS011;12760;46.296;25.290;2023-03-02T13:53:56;1.10;;;1.10;;
24613;SDS011;12760;46.296;25.290;2023-03-02T13:56:29;24.90;;;1.75;;
24613;SDS011;12760;46.296;25.290;2023-03-02T13:59:02;1.63;;;1.52;;
24613;SDS011;12760;46.296;25.290;2023-03-02T14:01:29;0.70;;;0.70;;
24613;SDS011;12760;46.296;25.290;2023-03-02T14:03:55;2.80;;;2.55;;
24613;SDS011;12760;46.296;25.290;2023-03-02T14:06:21;1.88;;;1.77;;
24613;SDS011;12760;46.296;25.290;2023-03-02T14:08:46;1.00;;;1.00;;
24613;SDS011;12760;46.296;25.290;2023-03-02T14:11:14;4.13;;;2.28;;
24613;SDS011;12760;46.296;25.290;2023-03-02T14:13:41;1.25;;;1.25;;
24613;SDS011;12760;46.296;25.290;2023-03-02T14:16:13;0.90;;;0.90;;
24613;SDS011;12760;46.296;25.290;2023-03-02T14:18:40;5.57;;;2.65;;
24613;SDS011;12760;46.296;25.290;2023-03-02T14:21:19;2.10;;;2.00;;
24613;SDS011;12760;46.296;25.290;2023-03-02T14:23:46;1.70;;;1.60;;
24613;SDS011;12760;46.296;25.290;2023-03-02T14:28:53;1.98;;;1.95;;
24613;SDS011;12760;46.296;25.290;2023-03-02T14:31:19;1.33;;;1.27;;
24613;SDS011;12760;46.296;25.290;2023-03-02T14:33:48;1.13;;;1.13;;
24613;SDS011;12760;46.296;25.290;2023-03-02T14:36:14;2.75;;;2.55;;
24613;SDS011;12760;46.296;25.290;2023-03-02T14:38:45;1.73;;;1.73;;
24613;SDS011;12760;46.296;25.290;2023-03-02T14:41:15;13.52;;;7.50;;
24613;SDS011;12760;46.296;25.290;2023-03-02T14:43:46;27.63;;;13.70;;
24613;SDS011;12760;46.296;25.290;2023-03-02T14:46:12;3.47;;;3.30;;
24613;SDS011;12760;46.296;25.290;2023-03-02T14:48:38;60.55;;;6.63;;
24613;SDS011;12760;46.296;25.290;2023-03-02T14:51:04;20.35;;;8.32;;
24613;SDS011;12760;46.296;25.290;2023-03-02T14:53:42;2.42;;;2.22;;
24613;SDS011;12760;46.296;25.290;2023-03-02T14:56:08;2.92;;;2.83;;
24613;SDS011;12760;46.296;25.290;2023-03-02T14:58:35;3.22;;;2.38;;
24613;SDS011;12760;46.296;25.290;2023-03-02T15:01:01;12.88;;;3.65;;
24613;SDS011;12760;46.296;25.290;2023-03-02T15:03:28;9.52;;;2.08;;
24613;SDS011;12760;46.296;25.290;2023-03-02T15:05:54;1.42;;;1.42;;
24613;SDS011;12760;46.296;25.290;2023-03-02T15:08:21;1.42;;;1.42;;
24613;SDS011;12760;46.296;25.290;2023-03-02T15:10:47;7.97;;;4.00;;
24613;SDS011;12760;46.296;25.290;2023-03-02T15:13:14;1.48;;;1.48;;
24613;SDS011;12760;46.296;25.290;2023-03-02T15:15:41;1.05;;;1.05;;
24613;SDS011;12760;46.296;25.290;2023-03-02T15:18:08;4.07;;;3.78;;
24613;SDS011;12760;46.296;25.290;2023-03-02T15:20:35;0.88;;;0.88;;
24613;SDS011;12760;46.296;25.290;2023-03-02T15:23:02;4.63;;;4.22;;
24613;SDS011;12760;46.296;25.290;2023-03-02T15:25:28;1.10;;;1.10;;
24613;SDS011;12760;46.296;25.290;2023-03-02T15:27:54;1.98;;;1.80;;
24613;SDS011;12760;46.296;25.290;2023-03-02T15:30:21;2.20;;;2.05;;
24613;SDS011;12760;46.296;25.290;2023-03-02T15:32:49;1.42;;;1.38;;
24613;SDS011;12760;46.296;25.290;2023-03-02T15:35:17;8.15;;;3.60;;
24613;SDS011;12760;46.296;25.290;2023-03-02T15:37:42;3.38;;;1.98;;
24613;SDS011;12760;46.296;25.290;2023-03-02T15:40:08;1.73;;;1.70;;
24613;SDS011;12760;46.296;25.290;2023-03-02T15:42:35;1.58;;;1.58;;
24613;SDS011;12760;46.296;25.290;2023-03-02T15:45:01;1.48;;;1.48;;
24613;SDS011;12760;46.296;25.290;2023-03-02T15:47:27;1.10;;;1.10;;
24613;SDS011;12760;46.296;25.290;2023-03-02T15:49:52;1.33;;;1.33;;
24613;SDS011;12760;46.296;25.290;2023-03-02T15:52:18;2.33;;;2.20;;
24613;SDS011;12760;46.296;25.290;2023-03-02T15:54:44;1.10;;;1.10;;
24613;SDS011;12760;46.296;25.290;2023-03-02T15:57:10;3.95;;;2.45;;